Time;durP1;ratioP1;P1;durP2;ratioP2;P2;SDS_P1;SDS_P2;PMS_P1;PMS_P2;Temp;Humidity;BMP_temperature;BMP_pressure;BME280_temperature;BME280_humidity;BME280_pressure;Samples;Min_cycle;Max_cycle;Signal;HPM_P1;HPM_P2
2022/12/29 00:00:10;;;;;;;4.70;0.90;;;;;;;14.44;83.10;100085.88;5076513;28;20063;-71
2022/12/29 00:02:41;;;;;;;3.03;0.95;;;;;;;14.48;83.50;100072.94;5092709;28;20067;-65
2022/12/29 00:05:09;;;;;;;5.78;0.90;;;;;;;14.71;81.63;100073.16;5097253;28;20055;-64
2022/12/29 00:07:36;;;;;;;5.03;1.23;;;;;;;14.81;81.24;100073.41;5094312;28;20052;-64
2022/12/29 00:10:04;;;;;;;5.35;1.10;;;;;;;14.42;81.98;100069.63;5092705;28;20055;-65
2022/12/29 00:15:36;;;;;;;3.92;1.05;;;;;;;14.40;83.53;100069.16;5093499;28;20063;-64
2022/12/29 00:15:37;;;;;;;5.50;1.27;;;;;;;14.56;82.92;100055.31;5092783;28;20044;-64
2022/12/29 00:18:05;;;;;;;5.07;1.38;;;;;;;14.58;81.42;100039.97;5092922;28;20513;-63
2022/12/29 00:45:54;;;;;;;7.65;2.30;;;;;;;14.62;84.06;100040.06;5097412;28;20063;-64
2022/12/29 00:51:08;;;;;;;6.43;1.73;;;;;;;14.48;83.80;100039.69;5081131;28;20054;-65
2022/12/29 00:53:35;;;;;;;4.65;1.65;;;;;;;14.49;82.23;100032.97;5097305;28;20044;-65
2022/12/29 00:56:03;;;;;;;7.10;2.03;;;;;;;14.64;85.19;100038.53;5096881;28;20059;-65
2022/12/29 00:58:33;;;;;;;4.82;1.58;;;;;;;14.68;84.88;100049.69;5088253;28;20054;-65
2022/12/29 01:01:05;;;;;;;6.75;1.60;;;;;;;14.89;84.38;100053.03;5096892;28;20044;-65
2022/12/29 01:03:35;;;;;;;5.18;1.90;;;;;;;14.65;85.21;100056.78;5079281;28;20060;-65
2022/12/29 01:06:04;;;;;;;8.27;2.00;;;;;;;14.90;84.97;100057.41;5096444;28;20508;-64
2022/12/29 01:08:32;;;;;;;5.20;1.33;;;;;;;14.99;84.84;100060.00;5078459;28;20451;-63
2022/12/29 01:11:05;;;;;;;4.85;1.13;;;;;;;14.73;84.18;100051.41;5096779;28;20048;-64
2022/12/29 01:13:33;;;;;;;5.47;1.50;;;;;;;14.57;85.09;100032.78;5078102;28;20059;-65
2022/12/29 01:16:01;;;;;;;5.55;1.25;;;;;;;14.56;84.38;100035.94;5096533;28;20043;-65
2022/12/29 01:18:28;;;;;;;6.10;1.70;;;;;;;14.90;84.32;100051.88;5097106;28;20051;-64
2022/12/29 01:21:00;;;;;;;4.82;1.60;;;;;;;14.54;83.18;100054.88;5078594;28;20044;-65
2022/12/29 01:23:27;;;;;;;5.40;1.60;;;;;;;14.69;85.52;100045.78;5097108;28;20059;-65
2022/12/29 01:25:55;;;;;;;8.13;1.73;;;;;;;14.68;84.89;100057.22;5096712;28;20048;-65
2022/12/29 01:28:23;;;;;;;9.15;1.90;;;;;;;14.53;84.84;100040.22;5078286;28;20071;-64
2022/12/29 01:30:52;;;;;;;8.50;1.95;;;;;;;15.11;83.25;100054.34;5096423;28;20044;-65
2022/12/29 01:33:19;;;;;;;5.70;1.70;;;;;;;14.88;84.25;100065.28;5097028;28;20059;-71
2022/12/29 01:35:47;;;;;;;9.80;2.20;;;;;;;14.78;84.80;100051.16;5077861;28;20043;-72
2022/12/29 01:38:15;;;;;;;4.30;1.40;;;;;;;14.86;84.25;100050.97;5078665;28;20060;-72
2022/12/29 01:40:45;;;;;;;7.43;1.75;;;;;;;14.65;83.48;100039.34;5077766;28;20067;-72
2022/12/29 01:43:14;;;;;;;7.00;1.42;;;;;;;14.49;83.68;100046.81;5096697;28;20380;-72
2022/12/29 01:45:49;;;;;;;4.03;1.52;;;;;;;14.92;83.89;100070.91;5095916;28;20040;-72
2022/12/29 01:48:17;;;;;;;6.72;1.10;;;;;;;14.87;83.31;100066.44;5083621;28;20056;-70
2022/12/29 01:50:50;;;;;;;6.18;1.17;;;;;;;14.05;82.22;100070.91;5111779;28;20052;-70
2022/12/29 01:53:29;;;;;;;4.85;1.05;;;;;;;14.36;84.00;100078.53;5077201;28;20148;-70
2022/12/29 01:55:59;;;;;;;4.22;1.02;;;;;;;14.23;81.24;100075.00;5096354;28;20055;-71
2022/12/29 01:58:30;;;;;;;6.70;1.30;;;;;;;13.77;85.09;100085.88;5078458;28;20388;-71
2022/12/29 02:00:59;;;;;;;4.63;0.90;;;;;;;13.95;85.25;100065.88;5077964;28;20048;-71
2022/12/29 02:03:28;;;;;;;6.43;1.13;;;;;;;13.36;86.63;100062.09;5084591;28;20380;-71
2022/12/29 02:06:03;;;;;;;2.60;1.15;;;;;;;14.00;87.42;100073.13;5061302;28;20070;-71
2022/12/29 02:08:31;;;;;;;3.13;1.05;;;;;;;13.98;85.63;100078.22;5076938;28;20059;-71
2022/12/29 02:10:59;;;;;;;3.75;0.80;;;;;;;13.43;84.47;100099.09;5077517;28;20048;-71
2022/12/29 02:13:27;;;;;;;4.40;1.10;;;;;;;13.57;88.72;100113.38;5093874;28;20048;-71
2022/12/29 02:16:17;;;;;;;3.80;0.70;;;;;;;14.10;89.24;100087.28;5095454;28;20400;-71
2022/12/29 02:18:51;;;;;;;5.87;0.87;;;;;;;13.87;88.98;100097.28;5104401;28;20088;-71
2022/12/29 02:22:02;;;;;;;2.70;0.75;;;;;;;13.60;84.65;100075.88;5058359;28;20126;-71
2022/12/29 02:24:41;;;;;;;3.72;0.90;;;;;;;13.86;86.72;100083.78;5046378;28;20063;-71
2022/12/29 02:27:35;;;;;;;4.75;0.70;;;;;;;13.76;85.48;100082.31;5090064;28;20047;-64
2022/12/29 02:30:02;;;;;;;3.45;0.90;;;;;;;13.39;88.74;100076.03;5095435;28;20594;-64
2022/12/29 02:32:30;;;;;;;5.18;0.90;;;;;;;13.50;87.52;100077.19;5076936;28;20050;-63
2022/12/29 02:35:13;;;;;;;7.43;0.82;;;;;;;13.06;86.90;100061.53;5077956;28;20048;-64
2022/12/29 02:38:13;;;;;;;4.30;0.82;;;;;;;13.25;89.93;100066.50;5077551;28;20043;-65
2022/12/29 02:40:40;;;;;;;6.47;1.27;;;;;;;13.14;90.97;100046.78;5099979;28;20122;-63
2022/12/29 02:43:38;;;;;;;5.00;0.80;;;;;;;13.52;86.37;100046.38;5072438;28;20410;-63
2022/12/29 02:46:15;;;;;;;2.90;0.90;;;;;;;13.84;86.19;100050.13;5053267;28;20064;-63
2022/12/29 02:48:55;;;;;;;4.80;0.90;;;;;;;13.63;81.99;100061.38;5095643;28;20055;-64
2022/12/29 02:51:32;;;;;;;6.45;1.02;;;;;;;13.93;85.37;100046.03;5092918;28;20071;-63
2022/12/29 02:56:49;;;;;;;6.65;1.15;;;;;;;14.23;82.72;100049.25;5064424;28;20052;-64
2022/12/29 02:59:17;;;;;;;5.03;0.85;;;;;;;13.89;83.43;100055.41;5073200;28;20384;-64
2022/12/29 03:05:08;;;;;;;7.18;1.20;;;;;;;13.95;84.02;100045.66;5093425;28;20063;-64
2022/12/29 03:08:04;;;;;;;9.07;1.15;;;;;;;14.34;80.70;100050.38;5075949;28;20048;-64
2022/12/29 03:10:40;;;;;;;10.98;1.70;;;;;;;14.34;77.80;100042.88;5093105;28;20047;-64
2022/12/29 03:16:15;;;;;;;8.70;1.38;;;;;;;13.88;83.44;100045.50;5093028;28;20056;-64
2022/12/29 03:19:38;;;;;;;4.53;1.40;;;;;;;14.12;82.19;100042.63;5076930;28;20507;-64
2022/12/29 03:25:26;;;;;;;8.60;1.70;;;;;;;14.21;81.69;100043.28;4995502;28;20050;-65
2022/12/29 03:27:57;;;;;;;6.57;1.17;;;;;;;13.49;78.24;100055.41;5057023;28;20182;-64
2022/12/29 03:30:28;;;;;;;6.63;1.27;;;;;;;13.54;80.12;100067.03;5075861;28;20360;-64
2022/12/29 03:33:02;;;;;;;11.38;1.63;;;;;;;13.42;80.40;100057.94;5075478;28;20059;-64
2022/12/29 03:35:35;;;;;;;8.23;1.20;;;;;;;13.39;82.69;100061.38;5058084;28;20063;-64
2022/12/29 03:38:15;;;;;;;7.53;1.58;;;;;;;12.97;81.22;100063.56;5058665;28;20048;-64
2022/12/29 03:40:55;;;;;;;5.15;1.23;;;;;;;13.57;84.79;100069.09;5076268;28;20055;-64
2022/12/29 03:43:25;;;;;;;7.22;1.10;;;;;;;14.24;81.13;100075.81;5044332;28;20407;-65
2022/12/29 03:45:54;;;;;;;7.82;1.77;;;;;;;13.92;80.49;100072.13;5094203;28;20122;-72
2022/12/29 03:48:22;;;;;;;7.03;1.30;;;;;;;14.21;79.95;100065.44;5110188;28;20044;-71
2022/12/29 03:50:50;;;;;;;9.77;1.67;;;;;;;14.19;79.29;100068.53;5090682;28;20509;-72
2022/12/29 03:53:18;;;;;;;8.05;1.30;;;;;;;14.25;79.70;100060.78;5076396;28;20055;-71
2022/12/29 03:55:46;;;;;;;7.82;1.42;;;;;;;14.32;79.76;100059.06;5077552;28;20048;-72
2022/12/29 03:58:14;;;;;;;5.03;0.95;;;;;;;14.36;79.36;100073.81;5060108;28;20052;-71
2022/12/29 04:01:00;;;;;;;6.75;1.27;;;;;;;14.07;78.48;100059.50;5078575;28;20044;-72
2022/12/29 04:03:30;;;;;;;4.65;1.00;;;;;;;14.17;79.57;100061.75;5059197;28;20518;-72
2022/12/29 04:05:58;;;;;;;5.93;0.93;;;;;;;14.30;80.52;100075.22;5078110;28;20491;-72
2022/12/29 04:08:26;;;;;;;6.68;1.00;;;;;;;13.72;76.16;100080.59;5097340;28;20050;-72
2022/12/29 04:10:53;;;;;;;6.07;1.20;;;;;;;13.28;79.19;100068.56;5094991;28;20048;-72
2022/12/29 04:13:22;;;;;;;9.35;1.48;;;;;;;13.65;80.44;100083.94;5059312;28;20079;-73
2022/12/29 04:15:51;;;;;;;4.97;1.23;;;;;;;13.82;80.30;100074.56;5096534;28;20048;-72
2022/12/29 04:18:19;;;;;;;6.00;1.10;;;;;;;13.87;77.70;100082.63;5078943;28;20044;-72
2022/12/29 04:21:05;;;;;;;6.97;1.40;;;;;;;14.40;80.31;100083.00;5060338;28;20040;-71
2022/12/29 04:23:36;;;;;;;6.60;1.15;;;;;;;14.07;78.37;100084.41;5095455;28;20609;-71
2022/12/29 04:26:07;;;;;;;8.55;1.85;;;;;;;14.18;79.62;100096.59;5097177;28;20048;-71
2022/12/29 04:28:38;;;;;;;7.18;1.40;;;;;;;14.50;77.45;100095.56;5095110;28;20048;-71
2022/12/29 04:31:24;;;;;;;10.40;1.17;;;;;;;14.11;76.35;100101.94;5098146;28;20638;-71
2022/12/29 04:33:52;;;;;;;8.05;1.48;;;;;;;14.31;78.91;100090.66;5096317;28;20048;-72
2022/12/29 04:36:20;;;;;;;6.72;1.17;;;;;;;14.55;77.52;100103.63;5079596;28;20055;-71
2022/12/29 04:38:56;;;;;;;6.82;1.45;;;;;;;14.55;76.26;100101.66;5096995;28;20048;-71
2022/12/29 04:41:23;;;;;;;9.30;1.40;;;;;;;14.43;77.32;100103.69;5078919;28;20134;-72
2022/12/29 04:43:51;;;;;;;7.85;1.10;;;;;;;14.08;77.50;100113.72;5095994;28;20384;-64
2022/12/29 04:46:45;;;;;;;7.60;1.48;;;;;;;14.16;78.43;100115.53;5096001;28;20376;-71
2022/12/29 04:49:32;;;;;;;9.23;1.77;;;;;;;14.23;78.50;100119.31;5097198;28;20058;-64
2022/12/29 04:52:10;;;;;;;6.65;0.90;;;;;;;14.16;77.98;100115.53;5079738;28;20056;-72
2022/12/29 04:54:37;;;;;;;9.38;1.25;;;;;;;14.27;78.49;100114.72;5062698;28;20055;-72
2022/12/29 04:57:14;;;;;;;9.32;1.08;;;;;;;14.34;77.77;100117.69;5078728;28;20384;-72
2022/12/29 04:59:42;;;;;;;8.13;1.20;;;;;;;14.32;77.41;100116.41;5095733;28;20499;-72
2022/12/29 05:02:10;;;;;;;8.82;1.65;;;;;;;14.38;77.28;100121.34;5095897;28;20059;-72
2022/12/29 05:04:38;;;;;;;5.88;1.05;;;;;;;14.18;77.27;100138.13;5079167;28;20063;-71
2022/12/29 05:07:05;;;;;;;10.00;1.92;;;;;;;13.95;76.17;100135.09;5093931;28;20052;-71
2022/12/29 05:09:33;;;;;;;30.90;2.58;;;;;;;13.63;76.54;100154.63;5096358;28;20052;-72
2022/12/29 05:12:01;;;;;;;7.18;1.50;;;;;;;14.01;79.69;100141.19;5079127;28;20491;-72
2022/12/29 05:14:35;;;;;;;6.78;1.63;;;;;;;13.86;77.88;100139.94;5097184;28;20044;-72
2022/12/29 05:17:03;;;;;;;7.72;1.52;;;;;;;14.19;77.49;100140.56;5094965;28;20048;-72
2022/12/29 05:19:31;;;;;;;6.97;1.20;;;;;;;14.12;77.44;100137.56;5096508;28;20048;-72
2022/12/29 05:21:58;;;;;;;9.38;1.85;;;;;;;13.82;75.47;100143.78;5079344;28;20052;-64
2022/12/29 05:24:26;;;;;;;8.30;1.48;;;;;;;14.25;78.75;100143.88;5094663;28;20051;-72
2022/12/29 05:26:56;;;;;;;9.02;1.27;;;;;;;14.25;78.64;100141.13;5096489;28;20052;-72
2022/12/29 05:29:44;;;;;;;9.23;1.30;;;;;;;14.30;76.98;100138.13;5099367;28;20059;-65
2022/12/29 05:32:11;;;;;;;13.38;1.95;;;;;;;14.16;73.98;100149.56;5096853;28;20052;-63
2022/12/29 05:34:38;;;;;;;7.63;1.50;;;;;;;14.10;76.67;100150.19;5062657;28;20052;-72
2022/12/29 05:37:06;;;;;;;9.85;1.55;;;;;;;14.05;74.64;100153.97;5077829;28;20048;-72
2022/12/29 05:39:33;;;;;;;9.02;1.88;;;;;;;14.03;75.54;100155.50;5081658;28;20048;-72
2022/12/29 05:42:04;;;;;;;7.22;1.70;;;;;;;14.24;76.25;100150.59;5079005;28;20055;-72
2022/12/29 05:44:43;;;;;;;11.45;1.45;;;;;;;14.07;75.64;100156.41;5096121;28;20044;-73
2022/12/29 05:47:20;;;;;;;9.38;1.88;;;;;;;13.96;73.70;100158.06;5096067;28;20059;-73
2022/12/29 05:50:00;;;;;;;12.55;1.83;;;;;;;14.07;73.89;100146.13;5095998;28;20059;-72
2022/12/29 05:52:51;;;;;;;14.65;2.63;;;;;;;14.33;74.42;100159.59;5081301;28;20221;-72
2022/12/29 05:55:19;;;;;;;11.65;1.92;;;;;;;14.17;72.81;100162.28;5074785;28;20055;-65
2022/12/29 05:57:48;;;;;;;10.40;2.03;;;;;;;14.28;73.57;100165.38;5078582;28;20411;-64
2022/12/29 06:00:17;;;;;;;11.65;2.53;;;;;;;14.30;72.51;100169.41;5087648;28;20472;-72
2022/12/29 06:02:46;;;;;;;11.05;2.08;;;;;;;14.34;74.80;100173.09;5094461;28;20044;-72
2022/12/29 06:05:15;;;;;;;14.63;2.57;;;;;;;14.14;70.29;100184.34;5076750;28;20407;-72
2022/12/29 06:07:44;;;;;;;13.27;2.50;;;;;;;13.84;71.82;100196.84;5061915;28;20290;-72
2022/12/29 06:10:14;;;;;;;15.00;1.90;;;;;;;14.21;73.49;100190.09;5111662;28;20048;-72
2022/12/29 06:12:46;;;;;;;9.88;1.70;;;;;;;14.39;74.77;100199.75;5078538;28;20430;-72
2022/12/29 06:15:14;;;;;;;13.25;1.85;;;;;;;14.35;73.09;100202.41;5059745;28;20209;-72
2022/12/29 06:17:44;;;;;;;13.77;1.98;;;;;;;14.16;71.22;100191.13;5061995;28;20055;-72
2022/12/29 06:20:11;;;;;;;12.90;1.67;;;;;;;14.30;73.98;100191.56;5079660;28;20059;-65
2022/12/29 06:22:39;;;;;;;12.27;2.10;;;;;;;14.29;72.51;100203.00;5081196;28;20589;-65
2022/12/29 06:25:07;;;;;;;10.10;1.98;;;;;;;14.42;73.46;100210.13;5094880;28;20052;-65
2022/12/29 06:27:35;;;;;;;13.63;2.10;;;;;;;14.29;73.22;100205.78;5093913;28;20084;-65
2022/12/29 06:30:03;;;;;;;11.25;2.00;;;;;;;14.02;73.47;100210.06;5077700;28;20048;-64
2022/12/29 06:32:30;;;;;;;9.68;1.80;;;;;;;13.84;73.16;100210.69;5077522;28;20052;-65
2022/12/29 06:35:05;;;;;;;11.00;1.88;;;;;;;14.24;75.00;100225.38;5062459;28;20044;-65
2022/12/29 06:37:37;;;;;;;12.18;2.58;;;;;;;13.88;73.63;100217.94;5059546;28;20044;-73
2022/12/29 06:40:06;;;;;;;10.50;2.22;;;;;;;13.99;75.30;100223.81;5061513;28;20495;-73
2022/12/29 06:42:53;;;;;;;14.05;2.50;;;;;;;13.90;72.55;100225.88;5095769;28;20051;-72
2022/12/29 06:45:39;;;;;;;11.40;2.63;;;;;;;13.69;74.47;100239.84;5096951;28;20051;-73
2022/12/29 06:48:07;;;;;;;14.07;2.83;;;;;;;13.88;73.98;100248.38;5094871;28;20040;-72
2022/12/29 06:50:34;;;;;;;16.08;2.22;;;;;;;13.73;74.14;100251.03;5076833;28;20055;-65
2022/12/29 06:53:02;;;;;;;11.93;2.15;;;;;;;13.90;74.82;100262.69;5095793;28;20052;-64
2022/12/29 06:55:30;;;;;;;13.63;2.05;;;;;;;14.07;75.96;100256.13;5060266;28;20052;-64
2022/12/29 06:57:58;;;;;;;12.95;2.13;;;;;;;13.92;74.88;100263.16;5077337;28;20518;-64
2022/12/29 07:00:25;;;;;;;9.30;1.98;;;;;;;14.10;74.21;100264.53;5095164;28;20052;-64
2022/12/29 07:02:54;;;;;;;11.77;2.35;;;;;;;13.80;73.70;100268.69;5094409;28;20052;-65
2022/12/29 07:05:22;;;;;;;9.75;1.77;;;;;;;14.06;75.06;100271.91;5095137;28;20052;-64
2022/12/29 07:07:50;;;;;;;12.45;2.25;;;;;;;13.97;75.61;100264.88;5075590;28;20060;-72
2022/12/29 07:10:17;;;;;;;14.77;2.45;;;;;;;14.01;74.46;100263.03;5077492;28;20056;-72
2022/12/29 07:12:44;;;;;;;10.25;1.90;;;;;;;14.26;74.34;100259.13;5095751;28;20395;-71
2022/12/29 07:15:12;;;;;;;10.88;2.50;;;;;;;14.25;74.77;100258.28;5094787;28;20056;-63
2022/12/29 07:17:40;;;;;;;12.25;2.08;;;;;;;13.98;73.32;100272.03;5095036;28;20044;-63
2022/12/29 07:20:08;;;;;;;11.10;2.28;;;;;;;14.15;74.53;100264.31;5072919;28;20048;-63
2022/12/29 07:22:35;;;;;;;12.02;2.55;;;;;;;14.21;74.26;100279.50;5064463;28;20052;-63
2022/12/29 07:25:03;;;;;;;12.63;2.65;;;;;;;13.98;72.77;100283.13;5093597;28;20439;-65
2022/12/29 07:27:30;;;;;;;10.38;1.52;;;;;;;14.09;74.35;100287.03;5091540;28;20503;-64
2022/12/29 07:29:58;;;;;;;13.32;1.73;;;;;;;13.89;73.74;100280.47;5047990;28;20389;-67
2022/12/29 07:32:32;;;;;;;16.27;2.35;;;;;;;13.85;74.06;100287.03;5092655;28;20048;-64
2022/12/29 07:35:00;;;;;;;12.80;2.05;;;;;;;13.85;76.48;100289.78;5094361;28;20051;-64
2022/12/29 07:37:28;;;;;;;10.35;2.35;;;;;;;13.98;76.02;100296.97;5074713;28;20045;-64
2022/12/29 07:39:56;;;;;;;13.50;2.75;;;;;;;14.01;75.08;100294.31;5086755;28;20047;-63
2022/12/29 07:42:23;;;;;;;11.30;1.58;;;;;;;14.56;76.12;100296.44;5085918;28;20044;-64
2022/12/29 07:44:52;;;;;;;14.55;2.35;;;;;;;14.43;70.89;100304.00;5070653;28;20048;-62
2022/12/29 07:47:26;;;;;;;13.07;2.40;;;;;;;14.51;72.02;100311.38;5084767;28;20063;-62
2022/12/29 07:49:54;;;;;;;11.05;1.80;;;;;;;14.81;70.71;100313.84;5063016;28;20053;-63
2022/12/29 07:52:21;;;;;;;13.35;2.88;;;;;;;14.46;71.50;100319.13;5079824;28;20294;-64
2022/12/29 07:54:49;;;;;;;12.50;2.58;;;;;;;14.67;68.55;100314.22;5082949;28;20047;-63
2022/12/29 07:57:16;;;;;;;13.13;2.30;;;;;;;14.16;67.81;100318.53;5086032;28;20052;-70
2022/12/29 07:59:43;;;;;;;14.02;2.65;;;;;;;14.01;71.09;100335.84;5065669;28;20064;-69
2022/12/29 08:02:11;;;;;;;14.60;2.63;;;;;;;13.98;70.33;100335.72;5080340;28;20044;-71
2022/12/29 08:04:39;;;;;;;13.23;2.40;;;;;;;13.97;70.91;100342.41;5052205;28;20060;-71
2022/12/29 08:07:06;;;;;;;14.57;3.22;;;;;;;13.91;71.89;100338.25;5057948;28;20052;-70
2022/12/29 08:09:33;;;;;;;11.27;2.58;;;;;;;13.92;72.17;100350.94;5037588;28;20044;-71
2022/12/29 08:12:01;;;;;;;15.70;2.20;;;;;;;13.95;71.33;100345.53;5069491;28;20052;-68
2022/12/29 08:14:28;;;;;;;14.90;2.75;;;;;;;14.26;72.77;100350.53;5056587;28;20048;-69
2022/12/29 08:16:55;;;;;;;15.18;2.33;;;;;;;14.28;70.86;100345.44;5072422;28;20055;-70
2022/12/29 08:19:24;;;;;;;21.13;3.63;;;;;;;14.06;70.17;100352.22;5087544;28;20052;-69
2022/12/29 08:21:52;;;;;;;16.58;2.67;;;;;;;14.14;70.72;100339.44;5075002;28;21297;-68
2022/12/29 08:24:20;;;;;;;14.25;2.60;;;;;;;14.23;70.81;100354.78;5085245;28;20053;-72
2022/12/29 08:26:47;;;;;;;12.68;2.60;;;;;;;14.05;69.08;100358.13;5051553;28;20527;-70
2022/12/29 08:29:15;;;;;;;16.15;3.22;;;;;;;14.13;68.98;100363.56;5077571;28;20055;-70
2022/12/29 08:31:42;;;;;;;14.40;3.17;;;;;;;13.97;69.92;100368.16;5053276;28;20531;-70
2022/12/29 08:34:10;;;;;;;12.27;2.85;;;;;;;14.14;72.76;100373.47;5074931;28;20047;-70
2022/12/29 08:36:37;;;;;;;19.88;2.58;;;;;;;14.03;69.79;100372.31;5070704;28;20048;-70
2022/12/29 08:39:04;;;;;;;17.52;3.42;;;;;;;14.26;71.50;100381.81;5070027;28;20041;-70
2022/12/29 08:41:32;;;;;;;17.48;3.35;;;;;;;13.92;69.09;100381.41;5049992;28;20052;-70
2022/12/29 08:43:59;;;;;;;18.80;3.65;;;;;;;14.11;70.09;100387.19;5088195;28;20059;-69
2022/12/29 08:46:26;;;;;;;15.13;3.03;;;;;;;14.12;71.09;100389.63;5051088;28;20408;-69
2022/12/29 08:48:54;;;;;;;20.38;3.25;;;;;;;13.82;69.97;100401.22;5072463;28;20059;-68
2022/12/29 08:51:22;;;;;;;19.65;3.63;;;;;;;14.16;71.62;100401.63;5075534;28;20539;-69
2022/12/29 08:53:51;;;;;;;23.02;3.95;;;;;;;13.83;68.61;100405.59;5078043;28;20422;-69
2022/12/29 08:56:19;;;;;;;17.73;2.92;;;;;;;13.89;71.20;100401.47;5074932;28;20059;-70
2022/12/29 08:58:51;;;;;;;16.77;2.97;;;;;;;14.13;71.89;100399.56;5054215;28;20040;-69
2022/12/29 09:01:20;;;;;;;14.48;2.78;;;;;;;14.11;69.40;100412.13;5055522;28;20051;-69
2022/12/29 09:03:48;;;;;;;23.42;3.95;;;;;;;13.77;69.00;100423.59;5063881;28;20048;-69
2022/12/29 09:06:36;;;;;;;17.60;3.28;;;;;;;14.30;70.24;100420.72;5093278;28;20684;-69
2022/12/29 09:09:07;;;;;;;18.00;3.40;;;;;;;14.03;69.50;100416.63;5095327;28;20051;-68
2022/12/29 09:11:34;;;;;;;18.77;3.72;;;;;;;14.28;71.33;100418.28;5095675;28;20048;-71
2022/12/29 09:14:01;;;;;;;17.75;3.03;;;;;;;14.36;67.45;100419.34;5095411;28;20047;-70
2022/12/29 09:16:29;;;;;;;17.08;3.78;;;;;;;14.18;68.27;100427.03;5079731;28;20503;-72
2022/12/29 09:18:56;;;;;;;22.30;3.67;;;;;;;13.98;70.16;100424.34;5090651;28;20044;-69
2022/12/29 09:21:23;;;;;;;18.15;3.65;;;;;;;13.74;69.02;100433.38;5084284;28;20067;-69
2022/12/29 09:23:51;;;;;;;14.65;3.15;;;;;;;14.31;71.72;100434.22;5081369;28;20051;-70
2022/12/29 09:26:18;;;;;;;18.85;3.25;;;;;;;14.30;70.43;100435.38;5071970;28;20056;-70
2022/12/29 09:28:46;;;;;;;17.05;3.53;;;;;;;14.44;69.42;100444.16;5108649;28;20048;-71
2022/12/29 09:31:14;;;;;;;16.33;3.08;;;;;;;14.43;70.43;100436.19;5096697;28;20047;-70
2022/12/29 09:33:41;;;;;;;16.55;5.45;;;;;;;14.60;70.38;100435.97;5078835;28;20470;-71
2022/12/29 09:36:09;;;;;;;26.50;5.57;;;;;;;14.30;70.26;100437.34;5099398;28;20051;-71
2022/12/29 09:38:36;;;;;;;28.92;9.77;;;;;;;14.25;69.74;100445.84;5099641;28;20048;-70
2022/12/29 09:41:19;;;;;;;18.77;3.83;;;;;;;13.91;69.65;100454.56;5088392;28;20710;-71
2022/12/29 09:44:03;;;;;;;21.27;6.97;;;;;;;14.27;71.23;100455.47;5057920;28;20420;-71
2022/12/29 09:46:38;;;;;;;19.85;5.22;;;;;;;14.38;69.78;100451.06;5075435;28;20043;-69
2022/12/29 09:49:13;;;;;;;15.30;3.38;;;;;;;14.24;71.03;100453.34;5076792;28;20040;-70
2022/12/29 09:51:43;;;;;;;19.20;3.60;;;;;;;14.10;71.08;100454.84;5056607;28;20055;-70
2022/12/29 09:54:30;;;;;;;23.50;3.50;;;;;;;13.76;69.84;100464.31;5090154;28;20050;-70
2022/12/29 09:56:58;;;;;;;10.50;3.15;;;;;;;14.09;71.40;100469.81;5074808;28;20060;-71
2022/12/29 09:59:36;;;;;;;17.65;3.97;;;;;;;14.18;68.75;100474.13;5095592;28;20048;-71
2022/12/29 10:02:13;;;;;;;15.77;3.58;;;;;;;14.27;70.63;100479.59;5075173;28;20054;-73
2022/12/29 10:04:41;;;;;;;20.52;4.13;;;;;;;13.82;68.76;100487.06;5080514;28;20048;-72
2022/12/29 10:07:39;;;;;;;13.98;3.10;;;;;;;13.96;68.90;100488.38;5075227;28;20052;-71
2022/12/29 10:10:34;;;;;;;15.05;3.40;;;;;;;13.74;71.83;100491.50;5063912;28;20452;-71
2022/12/29 10:13:28;;;;;;;15.50;3.20;;;;;;;14.26;71.50;100478.00;5048617;28;20045;-71
2022/12/29 10:16:16;;;;;;;16.30;3.63;;;;;;;14.49;68.99;100470.84;5071497;28;20541;-70
2022/12/29 10:18:55;;;;;;;23.10;8.35;;;;;;;14.74;68.43;100475.25;5047665;28;20060;-71
2022/12/29 10:21:24;;;;;;;30.23;14.50;;;;;;;14.92;68.21;100462.75;5067339;28;20425;-72
2022/12/29 10:23:53;;;;;;;17.50;4.05;;;;;;;14.46;67.89;100475.13;5071218;28;20423;-71
2022/12/29 10:26:23;;;;;;;15.77;2.53;;;;;;;14.37;69.25;100477.19;5072954;28;20063;-71
2022/12/29 10:28:55;;;;;;;14.63;2.90;;;;;;;14.22;68.56;100471.47;5033698;28;20060;-72
2022/12/29 10:31:24;;;;;;;20.20;3.67;;;;;;;14.22;68.22;100477.84;5048334;28;20049;-71
2022/12/29 10:34:00;;;;;;;24.67;4.78;;;;;;;13.91;70.70;100476.72;5050612;28;20052;-70
2022/12/29 10:36:34;;;;;;;21.88;4.45;;;;;;;14.10;70.37;100479.75;5035364;28;20056;-68
2022/12/29 10:39:07;;;;;;;24.50;3.92;;;;;;;14.52;68.38;100468.19;5049737;28;20376;-70
2022/12/29 10:41:39;;;;;;;19.15;3.42;;;;;;;14.66;66.52;100467.88;5064757;28;20053;-69
2022/12/29 10:44:09;;;;;;;15.98;3.28;;;;;;;14.65;65.65;100477.31;5055043;28;20049;-68
2022/12/29 10:46:37;;;;;;;20.95;4.25;;;;;;;14.63;66.15;100474.91;5051382;28;20062;-71
2022/12/29 10:49:06;;;;;;;24.38;4.65;;;;;;;14.55;66.56;100472.25;5067530;28;20500;-71
2022/12/29 10:51:38;;;;;;;20.80;4.95;;;;;;;14.29;66.75;100486.41;5056053;28;20040;-72
2022/12/29 10:54:18;;;;;;;20.92;5.78;;;;;;;14.13;67.06;100485.41;5071794;28;20059;-71
2022/12/29 10:56:50;;;;;;;24.02;4.70;;;;;;;13.79;65.16;100487.75;5047456;28;20068;-71
2022/12/29 10:59:23;;;;;;;21.98;3.90;;;;;;;13.53;65.79;100485.19;5036448;28;20053;-68
2022/12/29 11:01:54;;;;;;;22.33;4.60;;;;;;;13.85;67.00;100484.41;5071291;28;20060;-71
2022/12/29 11:04:27;;;;;;;23.67;4.53;;;;;;;14.04;67.76;100483.88;5052298;28;20488;-72
2022/12/29 11:06:56;;;;;;;16.33;3.40;;;;;;;13.91;66.33;100480.28;5058157;28;20040;-73
2022/12/29 11:09:35;;;;;;;15.05;3.55;;;;;;;14.28;65.88;100475.66;5055225;28;20052;-70
2022/12/29 11:12:28;;;;;;;22.80;4.35;;;;;;;14.51;65.80;100482.38;5079940;28;20047;-72
2022/12/29 11:15:07;;;;;;;22.27;4.88;;;;;;;14.24;63.25;100481.03;5061998;28;20044;-72
2022/12/29 11:17:46;;;;;;;26.37;4.03;;;;;;;14.04;66.39;100481.94;5076710;28;20063;-72
2022/12/29 11:20:29;;;;;;;24.43;4.37;;;;;;;14.43;66.36;100488.84;5080487;28;20052;-72
2022/12/29 11:22:57;;;;;;;24.00;3.88;;;;;;;14.39;63.93;100482.38;5075379;28;20048;-72
2022/12/29 11:25:24;;;;;;;18.58;3.95;;;;;;;14.57;65.84;100487.34;5075987;28;20045;-75
2022/12/29 11:28:04;;;;;;;18.33;3.80;;;;;;;14.64;64.12;100475.72;5055798;28;20432;-72
2022/12/29 11:30:31;;;;;;;21.37;4.13;;;;;;;14.28;64.07;100482.00;5041701;28;20051;-74
2022/12/29 11:33:03;;;;;;;18.80;3.72;;;;;;;14.14;63.34;100489.81;5055293;28;20599;-72
2022/12/29 11:35:35;;;;;;;22.98;4.43;;;;;;;14.53;65.02;100475.34;5066259;28;20091;-72
2022/12/29 11:38:18;;;;;;;20.80;4.63;;;;;;;14.60;63.88;100489.47;5066047;28;20044;-71
2022/12/29 11:40:46;;;;;;;20.77;4.78;;;;;;;14.80;63.50;100487.72;5083664;28;20041;-70
2022/12/29 11:43:36;;;;;;;29.67;5.22;;;;;;;14.81;61.35;100494.88;5049129;28;20053;-72
2022/12/29 11:46:03;;;;;;;19.92;4.22;;;;;;;14.59;64.93;100498.13;5057993;28;20077;-72
2022/12/29 11:48:41;;;;;;;28.40;4.68;;;;;;;14.39;64.16;100488.75;5078212;28;20041;-72
2022/12/29 11:51:09;;;;;;;21.65;4.25;;;;;;;14.30;62.87;100481.66;5072956;28;20041;-73
2022/12/29 11:53:43;;;;;;;22.15;5.07;;;;;;;14.75;62.74;100467.75;5073682;28;20051;-72
2022/12/29 11:56:14;;;;;;;18.30;3.40;;;;;;;14.57;63.02;100467.16;5051679;28;20053;-73
2022/12/29 11:58:42;;;;;;;19.42;3.88;;;;;;;14.77;62.46;100457.91;5053514;28;20041;-73
2022/12/29 12:01:09;;;;;;;24.65;4.57;;;;;;;14.18;62.15;100456.69;5071923;28;20052;-72
2022/12/29 12:03:42;;;;;;;17.38;3.70;;;;;;;14.35;61.83;100448.19;5079206;28;20052;-72
2022/12/29 12:06:12;;;;;;;21.92;4.47;;;;;;;13.68;60.95;100459.66;5074125;28;20059;-71
2022/12/29 12:08:44;;;;;;;19.38;4.35;;;;;;;14.06;66.08;100451.13;5060017;28;20044;-73
2022/12/29 12:11:16;;;;;;;20.08;4.60;;;;;;;14.56;64.79;100451.66;5081641;28;20411;-71
2022/12/29 12:14:00;;;;;;;18.48;4.30;;;;;;;14.24;61.85;100455.31;5080973;28;20274;-71
2022/12/29 12:17:15;;;;;;;31.77;5.00;;;;;;;14.20;64.69;100457.97;5089416;28;20514;-72
2022/12/29 12:20:05;;;;;;;27.48;5.95;;;;;;;14.49;61.45;100466.09;5072857;28;20056;-72
2022/12/29 12:22:36;;;;;;;19.42;5.43;;;;;;;14.82;64.56;100462.44;5081951;28;20768;-71